Time;durP1;ratioP1;P1;durP2;ratioP2;P2;SDS_P1;SDS_P2;PMS_P1;PMS_P2;Temp;Humidity;BMP_temperature;BMP_pressure;BME280_temperature;BME280_humidity;BME280_pressure;Samples;Min_cycle;Max_cycle;Signal;HPM_P1;HPM_P2
2020/12/25 00:01:47;;;;;;;10.40;7.03;;;6.90;93.30;;;;;;5043834;28;20509;-82
2020/12/25 00:04:13;;;;;;;7.70;3.50;;;7.00;93.40;;;;;;5043865;28;20474;-82
2020/12/25 00:06:40;;;;;;;9.00;4.07;;;7.00;93.10;;;;;;5043824;28;20470;-82
2020/12/25 00:09:07;;;;;;;9.30;4.70;;;7.00;92.90;;;;;;5044390;28;20420;-82
2020/12/25 00:11:35;;;;;;;6.00;3.40;;;7.00;93.00;;;;;;5043210;28;20897;-82
2020/12/25 00:14:02;;;;;;;5.67;3.73;;;7.10;92.90;;;;;;5043146;28;20482;-82
2020/12/25 00:16:29;;;;;;;5.53;3.57;;;7.00;92.80;;;;;;5043326;28;20474;-82
2020/12/25 00:18:56;;;;;;;5.83;3.80;;;7.00;93.10;;;;;;5043893;28;20449;-82
2020/12/25 00:21:22;;;;;;;8.10;3.70;;;7.00;93.20;;;;;;5043237;28;20435;-82
2020/12/25 00:23:50;;;;;;;6.63;3.40;;;7.00;93.10;;;;;;5043522;28;20447;-82
2020/12/25 00:26:23;;;;;;;5.77;4.10;;;7.00;93.20;;;;;;5043682;28;20474;-82
2020/12/25 00:28:49;;;;;;;5.83;2.70;;;7.10;93.20;;;;;;5043740;28;20454;-82
2020/12/25 00:31:24;;;;;;;5.50;2.60;;;7.10;93.10;;;;;;5041806;28;20964;-82
2020/12/25 00:33:50;;;;;;;9.10;3.40;;;7.10;93.00;;;;;;5043059;28;20490;-82
2020/12/25 00:36:26;;;;;;;11.10;3.07;;;7.10;93.10;;;;;;5042441;28;20497;-82
2020/12/25 00:38:54;;;;;;;3.83;2.93;;;7.10;92.90;;;;;;5042640;28;20435;-82
2020/12/25 00:41:20;;;;;;;4.73;3.07;;;7.10;92.40;;;;;;5041600;28;20453;-82
2020/12/25 00:43:47;;;;;;;4.90;3.20;;;7.10;92.50;;;;;;5042549;28;20446;-81
2020/12/25 00:46:14;;;;;;;11.03;3.00;;;7.00;92.50;;;;;;5042542;28;20501;-82
2020/12/25 00:48:40;;;;;;;8.33;3.57;;;7.00;92.50;;;;;;5042127;28;20600;-82
2020/12/25 00:51:12;;;;;;;5.40;3.80;;;7.00;92.40;;;;;;5042585;28;20433;-81
2020/12/25 00:53:38;;;;;;;4.23;3.17;;;7.00;92.50;;;;;;5042059;28;20466;-81
2020/12/25 00:56:05;;;;;;;5.47;3.23;;;7.00;92.40;;;;;;5041419;28;20463;-81
2020/12/25 00:58:31;;;;;;;4.30;3.20;;;7.10;92.40;;;;;;5042217;28;20450;-81
2020/12/25 01:00:57;;;;;;;7.50;3.30;;;7.10;92.20;;;;;;5043473;28;20436;-82
2020/12/25 01:03:24;;;;;;;6.47;3.03;;;7.10;92.30;;;;;;5045376;28;20458;-82
2020/12/25 01:05:50;;;;;;;6.87;3.10;;;7.10;92.30;;;;;;5045529;28;20454;-81
2020/12/25 01:08:16;;;;;;;5.87;3.17;;;7.10;92.30;;;;;;5046144;28;20457;-82
2020/12/25 01:10:43;;;;;;;7.03;3.33;;;7.10;92.10;;;;;;5045196;28;20450;-82
2020/12/25 01:13:10;;;;;;;5.50;3.00;;;7.10;91.90;;;;;;5046235;28;20492;-82
2020/12/25 01:15:36;;;;;;;7.87;3.23;;;7.10;91.80;;;;;;5046213;28;20486;-83
2020/12/25 01:18:02;;;;;;;9.17;3.50;;;7.10;91.80;;;;;;5045672;28;20450;-82
2020/12/25 01:20:28;;;;;;;8.87;3.13;;;7.10;91.90;;;;;;5043319;28;20442;-82
2020/12/25 01:22:54;;;;;;;5.43;2.50;;;7.10;91.70;;;;;;5040540;28;20453;-82
2020/12/25 01:25:21;;;;;;;6.37;2.57;;;7.10;91.40;;;;;;5045390;28;20469;-82
2020/12/25 01:27:47;;;;;;;10.13;2.70;;;7.10;91.60;;;;;;5046894;28;20454;-82
2020/12/25 01:30:14;;;;;;;5.57;2.50;;;7.10;91.60;;;;;;5046462;28;20464;-82
2020/12/25 01:32:40;;;;;;;6.30;2.70;;;7.10;91.70;;;;;;5045757;28;20450;-82
2020/12/25 01:35:06;;;;;;;9.70;3.50;;;7.10;91.70;;;;;;5045932;28;20517;-82
2020/12/25 01:37:32;;;;;;;7.03;2.53;;;7.10;91.60;;;;;;5045587;28;20454;-82
2020/12/25 01:39:59;;;;;;;3.97;2.23;;;7.10;91.60;;;;;;5044683;28;20431;-81
2020/12/25 01:42:25;;;;;;;7.87;2.33;;;7.10;91.50;;;;;;5044151;28;20453;-81
2020/12/25 01:44:51;;;;;;;7.73;2.70;;;7.10;91.40;;;;;;5043369;28;20492;-81
2020/12/25 01:47:20;;;;;;;3.53;2.70;;;7.10;91.40;;;;;;5042888;28;20446;-82
2020/12/25 01:49:47;;;;;;;4.70;2.53;;;7.10;91.30;;;;;;5043434;28;20500;-82
2020/12/25 01:52:14;;;;;;;6.03;2.60;;;7.10;91.30;;;;;;5043487;28;20450;-82
2020/12/25 01:54:43;;;;;;;4.17;2.17;;;7.10;91.40;;;;;;5042843;28;20485;-82
2020/12/25 01:57:11;;;;;;;5.93;2.50;;;7.00;91.20;;;;;;5042967;28;20446;-82
2020/12/25 01:59:37;;;;;;;8.10;2.50;;;7.00;91.10;;;;;;5042919;28;20469;-82
2020/12/25 02:02:03;;;;;;;7.40;2.13;;;7.00;91.00;;;;;;5043091;28;20815;-82
2020/12/25 02:04:31;;;;;;;3.10;2.03;;;6.90;91.20;;;;;;5043064;28;20447;-81
2020/12/25 02:06:57;;;;;;;8.43;2.53;;;6.90;91.40;;;;;;5042581;28;20500;-81
2020/12/25 02:09:23;;;;;;;5.23;1.63;;;6.80;91.40;;;;;;5042657;28;20480;-81
2020/12/25 02:11:49;;;;;;;6.27;1.93;;;6.90;91.40;;;;;;5043220;28;20434;-82
2020/12/25 02:14:16;;;;;;;8.10;2.20;;;6.80;91.30;;;;;;5042330;28;20494;-81
2020/12/25 02:16:45;;;;;;;8.27;2.17;;;6.80;91.10;;;;;;5042569;28;20853;-82
2020/12/25 02:19:11;;;;;;;13.40;2.50;;;6.80;91.20;;;;;;5042388;28;20450;-81
2020/12/25 02:21:38;;;;;;;3.87;2.30;;;6.80;91.10;;;;;;5042047;28;20450;-81
2020/12/25 02:24:04;;;;;;;9.80;2.50;;;6.80;91.20;;;;;;5042457;28;20450;-81
2020/12/25 02:26:31;;;;;;;6.07;2.70;;;6.80;91.00;;;;;;5041902;28;20467;-81
2020/12/25 02:28:57;;;;;;;7.03;2.67;;;6.80;90.90;;;;;;5042614;28;20817;-82
2020/12/25 02:31:23;;;;;;;4.30;1.73;;;6.80;91.00;;;;;;5042934;28;20451;-81
2020/12/25 02:33:50;;;;;;;5.73;2.30;;;6.80;91.00;;;;;;5041751;28;21057;-81
2020/12/25 02:36:16;;;;;;;6.17;1.93;;;6.80;91.00;;;;;;5042566;28;20502;-82
2020/12/25 02:38:43;;;;;;;7.37;1.63;;;6.80;90.90;;;;;;5041575;28;20446;-81
2020/12/25 02:41:09;;;;;;;4.67;2.37;;;6.80;90.80;;;;;;5041485;28;21018;-81
2020/12/25 02:43:35;;;;;;;7.70;1.60;;;6.80;90.70;;;;;;5041739;28;20454;-82
2020/12/25 02:46:01;;;;;;;3.43;2.50;;;6.80;90.60;;;;;;5041998;28;20475;-81
2020/12/25 02:48:27;;;;;;;4.80;1.93;;;6.70;90.50;;;;;;5041738;28;20952;-81
2020/12/25 02:50:54;;;;;;;7.90;2.50;;;6.70;90.70;;;;;;5041964;28;20474;-81
2020/12/25 02:53:20;;;;;;;6.03;2.07;;;6.70;90.70;;;;;;5041181;28;20944;-81
2020/12/25 02:55:47;;;;;;;6.90;1.90;;;6.60;90.70;;;;;;5041979;28;20462;-82
2020/12/25 02:58:13;;;;;;;2.97;1.80;;;6.60;90.70;;;;;;5042174;28;20454;-81
2020/12/25 03:00:39;;;;;;;3.17;1.70;;;6.60;90.80;;;;;;5041159;28;20443;-81
2020/12/25 03:03:05;;;;;;;7.43;1.93;;;6.60;90.90;;;;;;5041231;28;20443;-82
2020/12/25 03:05:32;;;;;;;7.70;2.17;;;6.70;90.80;;;;;;5041706;28;20542;-82
2020/12/25 03:07:58;;;;;;;4.87;1.50;;;6.60;90.60;;;;;;5041222;28;20449;-81
2020/12/25 03:10:24;;;;;;;7.80;2.20;;;6.60;90.70;;;;;;5041437;28;20427;-81
2020/12/25 03:12:51;;;;;;;5.63;1.63;;;6.60;90.70;;;;;;5041199;28;20442;-81
2020/12/25 03:15:17;;;;;;;8.77;2.10;;;6.60;90.70;;;;;;5040823;28;20495;-82
2020/12/25 03:17:43;;;;;;;5.47;1.80;;;6.60;90.50;;;;;;5041514;28;20446;-82
2020/12/25 03:20:10;;;;;;;5.63;1.53;;;6.60;90.70;;;;;;5041142;28;20465;-82
2020/12/25 03:22:36;;;;;;;4.77;1.90;;;6.50;90.90;;;;;;5040639;28;20450;-81
2020/12/25 03:25:02;;;;;;;4.90;1.60;;;6.50;91.00;;;;;;5040365;28;20466;-81
2020/12/25 03:27:28;;;;;;;5.47;2.13;;;6.50;91.00;;;;;;5041819;28;20516;-82
2020/12/25 03:29:55;;;;;;;6.37;1.90;;;6.50;91.10;;;;;;5041080;28;20445;-81
2020/12/25 03:32:22;;;;;;;7.27;1.80;;;6.50;91.00;;;;;;5041087;28;20789;-81
2020/12/25 03:34:48;;;;;;;5.10;1.80;;;6.50;91.00;;;;;;5040945;28;20976;-81
2020/12/25 03:37:14;;;;;;;3.10;1.60;;;6.50;90.90;;;;;;5040913;28;20446;-82
2020/12/25 03:39:40;;;;;;;8.67;1.80;;;6.50;90.70;;;;;;5040754;28;20458;-81
2020/12/25 03:42:06;;;;;;;9.73;1.80;;;6.40;90.40;;;;;;5041030;28;20458;-81
2020/12/25 03:44:33;;;;;;;6.10;2.20;;;6.40;90.50;;;;;;5040279;28;20501;-81
2020/12/25 03:47:00;;;;;;;10.37;2.00;;;6.40;90.50;;;;;;5040858;28;20476;-82
2020/12/25 03:49:26;;;;;;;6.93;2.40;;;6.30;90.50;;;;;;5041145;28;20924;-81
2020/12/25 03:51:52;;;;;;;3.90;1.43;;;6.30;90.60;;;;;;5040745;28;20450;-82
2020/12/25 03:54:18;;;;;;;5.00;1.70;;;6.30;90.50;;;;;;5040122;28;20991;-81
2020/12/25 03:56:44;;;;;;;7.40;1.90;;;6.30;90.50;;;;;;5041071;28;20470;-82
2020/12/25 03:59:11;;;;;;;6.53;1.80;;;6.20;90.90;;;;;;5041084;28;20446;-81
2020/12/25 04:01:37;;;;;;;7.20;2.70;;;6.30;90.70;;;;;;5041022;28;20442;-81
2020/12/25 04:04:04;;;;;;;7.07;2.93;;;6.30;90.60;;;;;;5040694;28;20446;-81
2020/12/25 04:06:30;;;;;;;8.67;2.40;;;6.20;90.40;;;;;;5041112;28;20477;-81
2020/12/25 04:08:56;;;;;;;11.13;2.83;;;6.20;90.30;;;;;;5040616;28;20509;-81
2020/12/25 04:11:22;;;;;;;4.27;2.00;;;6.10;90.20;;;;;;5040860;28;20446;-81
2020/12/25 04:13:49;;;;;;;14.20;3.47;;;6.10;90.20;;;;;;5040126;28;20493;-82
2020/12/25 04:16:15;;;;;;;6.60;2.37;;;6.00;90.30;;;;;;5039653;28;20497;-81
2020/12/25 04:18:41;;;;;;;5.27;2.07;;;5.90;90.40;;;;;;5039131;28;20442;-81
2020/12/25 04:21:08;;;;;;;7.33;2.50;;;5.90;90.50;;;;;;5039859;28;20455;-81
2020/12/25 04:23:34;;;;;;;4.80;2.10;;;5.80;90.60;;;;;;5039120;28;20442;-81
2020/12/25 04:26:00;;;;;;;11.03;2.70;;;5.70;90.80;;;;;;5037332;28;20477;-82
2020/12/25 04:28:26;;;;;;;6.47;1.83;;;5.60;91.00;;;;;;5037483;28;20998;-82
2020/12/25 04:30:53;;;;;;;4.40;2.03;;;5.70;91.10;;;;;;5042117;28;20445;-82
2020/12/25 04:33:19;;;;;;;3.83;2.10;;;5.60;91.00;;;;;;5041243;28;20450;-82
2020/12/25 04:35:45;;;;;;;4.57;2.13;;;5.60;91.20;;;;;;5039523;28;20521;-81
2020/12/25 04:38:12;;;;;;;5.60;1.87;;;5.60;91.20;;;;;;5039851;28;21013;-81
2020/12/25 04:40:38;;;;;;;5.30;2.00;;;5.60;91.30;;;;;;5040931;28;20443;-81
2020/12/25 04:43:05;;;;;;;9.83;2.33;;;5.50;91.30;;;;;;5039709;28;20443;-81
2020/12/25 04:45:31;;;;;;;5.80;2.13;;;5.60;91.40;;;;;;5039753;28;20462;-81
2020/12/25 04:47:58;;;;;;;8.77;2.23;;;5.60;91.30;;;;;;5039238;28;20477;-81
2020/12/25 04:50:25;;;;;;;7.50;2.30;;;5.60;91.20;;;;;;5039214;28;20457;-80
2020/12/25 04:52:51;;;;;;;6.17;2.17;;;5.60;91.00;;;;;;5039034;28;20450;-82
2020/12/25 04:55:18;;;;;;;6.50;3.17;;;5.50;91.00;;;;;;5038038;28;20494;-81
2020/12/25 04:57:45;;;;;;;9.73;2.27;;;5.50;91.10;;;;;;5038373;28;20461;-81
2020/12/25 05:00:18;;;;;;;6.57;1.90;;;5.50;91.00;;;;;;5037955;28;20825;-81
2020/12/25 05:02:47;;;;;;;7.60;2.00;;;5.60;91.10;;;;;;5037279;28;20447;-81
2020/12/25 05:05:15;;;;;;;6.40;2.27;;;5.60;90.90;;;;;;5037422;28;20458;-81
2020/12/25 05:07:41;;;;;;;11.33;2.50;;;5.50;90.90;;;;;;5038158;28;20465;-81
2020/12/25 05:10:08;;;;;;;8.83;2.10;;;5.60;91.00;;;;;;5037338;28;20446;-81
2020/12/25 05:12:37;;;;;;;4.50;1.90;;;5.50;90.80;;;;;;5037479;28;20940;-81
2020/12/25 05:15:08;;;;;;;7.13;2.30;;;5.60;90.90;;;;;;5037189;28;20497;-80
2020/12/25 05:17:35;;;;;;;6.43;2.00;;;5.60;90.80;;;;;;5037559;28;20475;-80
2020/12/25 05:20:03;;;;;;;4.83;2.27;;;5.60;90.50;;;;;;5037832;28;20454;-81
2020/12/25 05:22:29;;;;;;;5.13;2.10;;;5.50;90.00;;;;;;5037336;28;20968;-80
2020/12/25 05:24:59;;;;;;;11.40;2.40;;;5.50;89.80;;;;;;5036653;28;20458;-80
2020/12/25 05:27:28;;;;;;;11.93;3.17;;;5.40;89.50;;;;;;5037447;28;20892;-80
2020/12/25 05:29:57;;;;;;;6.43;2.20;;;5.40;89.80;;;;;;5037397;28;20525;-80
2020/12/25 05:32:26;;;;;;;7.77;1.87;;;5.40;90.10;;;;;;5037425;28;20457;-80
2020/12/25 05:34:54;;;;;;;9.43;2.23;;;5.30;90.00;;;;;;5037125;28;20486;-80
2020/12/25 05:37:22;;;;;;;3.20;1.87;;;5.30;89.40;;;;;;5037185;28;20451;-80
2020/12/25 05:39:49;;;;;;;7.70;2.50;;;5.30;89.20;;;;;;5037222;28;20450;-80
2020/12/25 05:42:16;;;;;;;9.63;2.30;;;5.20;89.00;;;;;;5037001;28;20949;-81
2020/12/25 05:44:46;;;;;;;4.60;1.50;;;5.10;89.00;;;;;;5037020;28;20449;-80
2020/12/25 05:47:14;;;;;;;5.77;1.57;;;5.00;89.30;;;;;;5039020;28;20434;-80
2020/12/25 05:49:41;;;;;;;4.67;1.97;;;4.90;89.90;;;;;;5040412;28;20974;-80
2020/12/25 05:52:07;;;;;;;3.40;1.97;;;5.00;90.50;;;;;;5041109;28;21003;-81
2020/12/25 05:54:35;;;;;;;3.80;1.43;;;4.90;90.70;;;;;;5041001;28;20544;-80
2020/12/25 05:57:01;;;;;;;5.00;2.13;;;5.00;91.00;;;;;;5041320;28;20526;-80
2020/12/25 05:59:29;;;;;;;4.50;2.00;;;5.00;91.10;;;;;;5040660;28;20917;-80
2020/12/25 06:01:57;;;;;;;9.23;2.27;;;5.00;91.10;;;;;;5040865;28;20813;-80
2020/12/25 06:04:25;;;;;;;10.13;2.80;;;5.00;91.20;;;;;;5040968;28;20963;-80
2020/12/25 06:06:52;;;;;;;4.20;2.07;;;5.10;91.40;;;;;;5041302;28;20477;-80
2020/12/25 06:09:20;;;;;;;8.23;2.37;;;5.10;91.60;;;;;;5043071;28;20455;-81
2020/12/25 06:11:49;;;;;;;10.17;2.57;;;5.10;91.60;;;;;;5043116;28;20454;-81
2020/12/25 06:14:15;;;;;;;3.53;1.90;;;5.10;91.60;;;;;;5042951;28;20490;-81
2020/12/25 06:16:52;;;;;;;5.53;1.90;;;5.00;91.50;;;;;;5041484;28;20528;-81
2020/12/25 06:19:34;;;;;;;5.30;2.20;;;5.00;91.50;;;;;;5042036;28;20438;-80
2020/12/25 06:22:05;;;;;;;9.57;1.97;;;5.00;91.90;;;;;;5041716;28;20435;-80
2020/12/25 06:24:34;;;;;;;7.03;2.43;;;5.00;91.50;;;;;;5040659;28;20438;-80
2020/12/25 06:27:01;;;;;;;5.50;2.33;;;5.00;91.70;;;;;;5040559;28;20504;-80
2020/12/25 06:29:29;;;;;;;6.53;2.10;;;4.90;91.70;;;;;;5040364;28;20418;-80
2020/12/25 06:31:56;;;;;;;10.50;2.47;;;4.90;91.80;;;;;;5040871;28;20457;-80
2020/12/25 06:34:23;;;;;;;5.87;1.80;;;4.90;91.80;;;;;;5040175;28;20502;-80
2020/12/25 06:36:50;;;;;;;10.07;1.97;;;4.90;91.80;;;;;;5040623;28;20475;-80
2020/12/25 06:39:18;;;;;;;5.03;1.60;;;4.80;91.90;;;;;;5040230;28;20956;-80
2020/12/25 06:41:45;;;;;;;8.77;2.47;;;4.80;92.10;;;;;;5040199;28;20473;-81
2020/12/25 06:44:14;;;;;;;9.23;2.50;;;4.80;91.80;;;;;;5040041;28;20450;-80
2020/12/25 06:46:47;;;;;;;5.70;1.50;;;4.80;91.60;;;;;;5039902;28;21007;-80
2020/12/25 06:49:15;;;;;;;9.10;2.47;;;4.80;91.60;;;;;;5040186;28;20415;-80
2020/12/25 06:51:42;;;;;;;9.83;2.20;;;4.80;91.60;;;;;;5040227;28;20450;-80
2020/12/25 06:54:17;;;;;;;4.33;2.20;;;4.80;91.60;;;;;;5040324;28;20489;-80
2020/12/25 06:56:44;;;;;;;10.83;2.20;;;4.80;91.80;;;;;;5040382;28;20469;-80
2020/12/25 06:59:15;;;;;;;4.10;1.90;;;4.90;91.70;;;;;;5039192;28;20474;-81
2020/12/25 07:01:43;;;;;;;5.40;1.97;;;4.80;91.60;;;;;;5039487;28;20486;-81
2020/12/25 07:04:25;;;;;;;4.40;2.13;;;4.80;91.70;;;;;;5039205;28;20980;-80
2020/12/25 07:06:53;;;;;;;6.67;2.10;;;4.80;91.70;;;;;;5038639;28;20980;-80
2020/12/25 07:09:20;;;;;;;9.00;2.00;;;4.70;91.60;;;;;;5039029;28;20458;-80
2020/12/25 07:11:50;;;;;;;6.17;2.70;;;4.70;91.90;;;;;;5038253;28;20820;-80
2020/12/25 07:14:17;;;;;;;6.80;2.70;;;4.60;92.00;;;;;;5038012;28;20905;-80
2020/12/25 07:16:43;;;;;;;7.83;2.57;;;4.60;92.10;;;;;;5038565;28;20462;-80
2020/12/25 07:19:09;;;;;;;7.00;1.97;;;4.60;92.10;;;;;;5038336;28;20455;-80
2020/12/25 07:21:36;;;;;;;10.47;1.70;;;4.60;92.20;;;;;;5037867;28;20955;-80
2020/12/25 07:24:02;;;;;;;10.00;2.27;;;4.50;92.20;;;;;;5038588;28;20801;-80
2020/12/25 07:26:30;;;;;;;6.63;2.13;;;4.60;92.30;;;;;;5038464;28;20473;-81
2020/12/25 07:28:57;;;;;;;3.60;2.30;;;4.60;92.40;;;;;;5038905;28;20458;-80
2020/12/25 07:31:24;;;;;;;8.93;2.10;;;4.60;92.40;;;;;;5039734;28;20466;-80
2020/12/25 07:33:55;;;;;;;5.17;1.93;;;4.70;92.50;;;;;;5039368;28;20460;-81
2020/12/25 07:36:22;;;;;;;8.50;1.73;;;4.70;92.50;;;;;;5040218;28;20467;-81
2020/12/25 07:38:48;;;;;;;6.60;3.00;;;4.60;92.40;;;;;;5040818;28;20481;-81
2020/12/25 07:41:15;;;;;;;6.93;1.90;;;4.60;92.40;;;;;;5039980;28;20477;-81
2020/12/25 07:43:42;;;;;;;6.67;1.83;;;4.60;92.50;;;;;;5040594;28;20447;-81
2020/12/25 07:46:12;;;;;;;7.87;2.00;;;4.70;92.60;;;;;;5039832;28;20837;-81
2020/12/25 07:48:41;;;;;;;3.57;1.87;;;4.70;92.60;;;;;;5040408;28;20454;-81
2020/12/25 07:51:08;;;;;;;8.80;2.47;;;4.70;92.60;;;;;;5039512;28;20416;-81
2020/12/25 07:53:35;;;;;;;11.07;2.17;;;4.70;92.70;;;;;;5039594;28;20536;-82
2020/12/25 07:56:07;;;;;;;3.43;2.20;;;4.70;92.70;;;;;;5039626;28;20498;-80
2020/12/25 07:58:38;;;;;;;4.03;1.70;;;4.80;92.80;;;;;;5039300;28;20419;-81
2020/12/25 08:01:07;;;;;;;9.83;1.77;;;4.80;92.70;;;;;;5039142;28;20426;-81
2020/12/25 08:03:33;;;;;;;3.00;1.80;;;4.80;92.70;;;;;;5039215;28;20496;-81
2020/12/25 08:06:02;;;;;;;3.60;2.30;;;4.90;92.70;;;;;;5039212;28;20505;-80
2020/12/25 08:08:28;;;;;;;4.60;1.70;;;5.00;92.70;;;;;;5038957;28;20450;-81
2020/12/25 08:10:55;;;;;;;8.17;2.10;;;5.00;92.60;;;;;;5038372;28;20450;-80
2020/12/25 08:13:22;;;;;;;6.13;1.90;;;4.90;92.40;;;;;;5037676;28;20459;-81
2020/12/25 08:15:49;;;;;;;6.40;2.00;;;5.00;92.10;;;;;;5037197;28;20490;-80
2020/12/25 08:18:16;;;;;;;5.27;1.90;;;5.00;91.90;;;;;;5036796;28;20450;-80
2020/12/25 08:20:43;;;;;;;3.30;1.70;;;5.00;91.90;;;;;;5037403;28;20481;-80
2020/12/25 08:23:09;;;;;;;5.43;2.13;;;4.90;92.00;;;;;;5036835;28;20504;-80
2020/12/25 08:25:35;;;;;;;4.90;2.37;;;4.90;91.90;;;;;;5037085;28;20459;-80
2020/12/25 08:28:01;;;;;;;4.43;1.70;;;4.90;91.80;;;;;;5037244;28;20857;-80
2020/12/25 08:30:28;;;;;;;4.43;2.03;;;4.90;91.70;;;;;;5037308;28;20461;-80
2020/12/25 08:32:58;;;;;;;4.67;2.40;;;4.90;91.60;;;;;;5038002;28;20558;-80
2020/12/25 08:35:28;;;;;;;6.53;1.93;;;4.90;91.50;;;;;;5037065;28;20494;-80
2020/12/25 08:37:58;;;;;;;6.90;1.97;;;4.90;91.50;;;;;;5037636;28;20441;-80
2020/12/25 08:40:29;;;;;;;4.87;2.60;;;4.90;91.40;;;;;;5038357;28;20777;-80
2020/12/25 08:43:04;;;;;;;5.50;2.07;;;4.90;91.50;;;;;;5037332;28;20974;-80
2020/12/25 08:45:30;;;;;;;7.30;2.20;;;4.80;91.80;;;;;;5037436;28;20520;-80
2020/12/25 08:48:17;;;;;;;7.73;2.60;;;4.80;91.50;;;;;;5036953;28;20806;-80
2020/12/25 08:50:44;;;;;;;4.80;2.40;;;4.80;91.60;;;;;;5030721;28;20458;-81
2020/12/25 08:53:12;;;;;;;6.67;2.43;;;4.70;91.60;;;;;;5037751;28;20454;-81
2020/12/25 08:55:38;;;;;;;7.23;1.70;;;4.80;91.80;;;;;;5036674;28;20486;-80
2020/12/25 08:58:05;;;;;;;7.17;3.23;;;4.80;91.90;;;;;;5036778;28;20443;-80
2020/12/25 09:00:31;;;;;;;6.00;2.30;;;4.70;91.90;;;;;;5037028;28;20454;-81
2020/12/25 09:02:58;;;;;;;6.40;2.63;;;4.70;92.20;;;;;;5036951;28;20439;-80
2020/12/25 09:05:24;;;;;;;4.97;2.57;;;4.80;92.30;;;;;;5036583;28;20866;-81
2020/12/25 09:07:51;;;;;;;5.73;2.27;;;4.80;92.30;;;;;;5037075;28;20824;-80
2020/12/25 09:10:18;;;;;;;4.50;1.97;;;4.80;92.40;;;;;;5036857;28;20441;-80
2020/12/25 09:12:44;;;;;;;5.03;2.40;;;4.80;92.50;;;;;;5037781;28;20450;-79
2020/12/25 09:15:10;;;;;;;5.63;2.10;;;4.80;92.60;;;;;;5038663;28;20490;-80
2020/12/25 09:17:37;;;;;;;6.70;2.50;;;4.90;92.80;;;;;;5038515;28;20450;-79
2020/12/25 09:20:03;;;;;;;2.80;1.43;;;5.00;92.90;;;;;;5037792;28;20431;-79
2020/12/25 09:22:29;;;;;;;3.77;2.07;;;5.10;93.00;;;;;;5040597;28;20454;-80
2020/12/25 09:24:57;;;;;;;8.57;1.63;;;5.20;93.00;;;;;;5041695;28;20466;-79
2020/12/25 09:27:23;;;;;;;7.53;2.00;;;5.40;93.20;;;;;;5042284;28;20446;-80
2020/12/25 09:29:49;;;;;;;4.13;1.73;;;5.50;93.10;;;;;;5042109;28;20430;-80
2020/12/25 09:32:15;;;;;;;4.73;1.80;;;5.70;93.00;;;;;;5041479;28;20435;-79
2020/12/25 09:34:41;;;;;;;7.63;1.63;;;5.80;92.90;;;;;;5042918;28;20486;-80
2020/12/25 09:37:07;;;;;;;10.63;1.80;;;5.90;92.80;;;;;;5042233;28;20454;-79
2020/12/25 09:39:34;;;;;;;6.83;1.60;;;6.00;92.60;;;;;;5042759;28;20434;-79
2020/12/25 09:42:01;;;;;;;3.30;1.87;;;6.10;92.60;;;;;;5042153;28;20450;-80
2020/12/25 09:44:27;;;;;;;3.70;1.20;;;6.20;92.50;;;;;;5042357;28;20820;-79
2020/12/25 09:46:53;;;;;;;7.50;2.20;;;6.30;91.90;;;;;;5042932;28;20516;-79
2020/12/25 09:49:19;;;;;;;5.40;1.37;;;6.30;91.50;;;;;;5043051;28;20434;-79
2020/12/25 09:51:45;;;;;;;8.77;2.43;;;6.30;91.50;;;;;;5042275;28;20504;-79
2020/12/25 09:54:11;;;;;;;7.50;2.07;;;6.30;91.40;;;;;;5042571;28;20924;-80
2020/12/25 09:56:38;;;;;;;5.53;1.90;;;6.30;91.00;;;;;;5042805;28;20462;-79
2020/12/25 09:59:05;;;;;;;7.80;2.33;;;6.30;91.10;;;;;;5042843;28;20450;-79
2020/12/25 10:01:32;;;;;;;8.70;1.93;;;6.40;91.00;;;;;;5042987;28;20465;-79
2020/12/25 10:03:58;;;;;;;3.50;1.50;;;6.40;91.00;;;;;;5043819;28;20454;-79
2020/12/25 10:06:26;;;;;;;5.23;1.77;;;6.50;90.80;;;;;;5042547;28;20466;-79
2020/12/25 10:08:53;;;;;;;6.47;2.03;;;6.50;90.60;;;;;;5041724;28;20513;-79
2020/12/25 10:11:20;;;;;;;10.97;2.30;;;6.60;90.30;;;;;;5042894;28;20450;-79
2020/12/25 10:13:46;;;;;;;6.53;1.40;;;6.60;90.40;;;;;;5043260;28;20427;-80
2020/12/25 10:16:13;;;;;;;6.17;1.43;;;6.70;90.50;;;;;;5043209;28;20490;-79
2020/12/25 10:18:39;;;;;;;7.77;1.93;;;6.80;90.40;;;;;;5042701;28;20871;-79
2020/12/25 10:21:05;;;;;;;3.47;1.57;;;6.80;89.80;;;;;;5044070;28;20438;-79
2020/12/25 10:23:32;;;;;;;5.37;1.40;;;6.80;89.60;;;;;;5042597;28;20454;-79
2020/12/25 10:25:58;;;;;;;3.10;1.43;;;6.80;89.30;;;;;;5041895;28;20466;-79
2020/12/25 10:28:24;;;;;;;12.53;1.50;;;6.80;89.10;;;;;;5042343;28;20505;-79
2020/12/25 10:30:50;;;;;;;6.53;1.67;;;6.80;89.50;;;;;;5041573;28;20447;-79
2020/12/25 10:33:17;;;;;;;11.43;1.67;;;6.70;88.70;;;;;;5040254;28;20936;-79
2020/12/25 10:35:44;;;;;;;6.60;2.50;;;6.70;89.30;;;;;;5040745;28;20980;-79
2020/12/25 10:38:11;;;;;;;5.27;2.10;;;6.80;90.00;;;;;;5041545;28;20434;-79
2020/12/25 10:40:37;;;;;;;5.73;2.60;;;6.90;90.00;;;;;;5041980;28;20431;-79
2020/12/25 10:43:03;;;;;;;7.30;1.70;;;6.90;89.60;;;;;;5041962;28;20979;-81
2020/12/25 10:45:29;;;;;;;2.30;1.43;;;7.00;90.10;;;;;;5042313;28;20489;-80
2020/12/25 10:47:55;;;;;;;5.23;2.07;;;7.00;89.30;;;;;;5041185;28;20442;-80
2020/12/25 10:50:22;;;;;;;6.87;1.97;;;7.10;89.00;;;;;;5040906;28;20446;-79
2020/12/25 10:52:50;;;;;;;3.20;1.57;;;7.10;88.80;;;;;;5041762;28;20446;-79
2020/12/25 10:55:16;;;;;;;7.13;1.90;;;7.10;88.20;;;;;;5042302;28;20548;-79
2020/12/25 10:57:43;;;;;;;4.83;1.50;;;7.20;88.20;;;;;;5041745;28;20439;-79
2020/12/25 11:00:09;;;;;;;3.93;1.30;;;7.20;88.20;;;;;;5042714;28;20461;-78
2020/12/25 11:02:35;;;;;;;5.37;1.60;;;7.20;87.00;;;;;;5041208;28;20457;-79
2020/12/25 11:05:02;;;;;;;8.10;1.80;;;7.10;86.80;;;;;;5038011;28;20497;-78
2020/12/25 11:07:29;;;;;;;4.10;1.50;;;7.10;87.10;;;;;;5039533;28;20450;-79
2020/12/25 11:09:55;;;;;;;7.60;1.97;;;7.10;87.90;;;;;;5042431;28;20434;-79
2020/12/25 11:12:21;;;;;;;6.70;2.50;;;7.10;88.10;;;;;;5042476;28;20446;-79
2020/12/25 11:14:47;;;;;;;5.50;1.90;;;7.20;87.70;;;;;;5040705;28;20544;-79
2020/12/25 11:17:15;;;;;;;5.13;1.53;;;7.40;88.20;;;;;;5040382;28;20439;-79
2020/12/25 11:19:42;;;;;;;3.87;1.70;;;7.60;87.20;;;;;;5039696;28;20803;-80
2020/12/25 11:22:11;;;;;;;4.30;1.70;;;8.00;86.30;;;;;;5040988;28;20822;-80
2020/12/25 11:24:38;;;;;;;10.03;2.47;;;8.30;84.50;;;;;;5041136;28;20446;-79
2020/12/25 11:27:05;;;;;;;16.13;6.23;;;8.50;84.10;;;;;;5040623;28;20435;-79
2020/12/25 11:29:31;;;;;;;5.30;2.40;;;8.70;81.80;;;;;;5040232;28;20497;-79
2020/12/25 11:31:57;;;;;;;9.20;2.77;;;8.70;80.80;;;;;;5041867;28;21013;-77
2020/12/25 11:34:23;;;;;;;4.10;3.00;;;8.70;81.20;;;;;;5040052;28;20437;-77
2020/12/25 11:36:49;;;;;;;8.20;2.33;;;8.70;80.50;;;;;;5040163;28;20999;-78
2020/12/25 11:39:15;;;;;;;4.50;2.10;;;8.70;81.60;;;;;;5039703;28;20451;-79
2020/12/25 11:41:43;;;;;;;6.67;1.83;;;8.60;80.80;;;;;;5041260;28;20439;-79
2020/12/25 11:44:09;;;;;;;3.97;1.57;;;8.70;80.40;;;;;;5040780;28;20434;-80
2020/12/25 11:46:35;;;;;;;6.47;2.10;;;8.70;80.90;;;;;;5040360;28;20888;-81
2020/12/25 11:49:03;;;;;;;5.77;1.80;;;8.80;79.80;;;;;;5041334;28;20427;-80
2020/12/25 11:51:30;;;;;;;8.53;2.70;;;8.80;79.10;;;;;;5040418;28;20909;-78
2020/12/25 11:53:57;;;;;;;5.33;1.40;;;8.80;79.80;;;;;;5042542;28;20531;-79
2020/12/25 11:56:26;;;;;;;4.27;2.10;;;8.80;79.60;;;;;;5044832;28;20490;-79
2020/12/25 11:58:53;;;;;;;5.00;1.80;;;8.80;79.80;;;;;;5046435;28;20500;-79
2020/12/25 12:01:19;;;;;;;4.00;1.37;;;8.80;79.40;;;;;;5048432;28;20439;-79
2020/12/25 12:03:45;;;;;;;7.93;1.93;;;8.80;79.10;;;;;;5049611;28;20440;-80
2020/12/25 12:06:17;;;;;;;6.00;1.90;;;8.80;80.10;;;;;;5048464;28;20471;-80
2020/12/25 12:08:43;;;;;;;7.77;1.90;;;8.80;80.20;;;;;;5047806;28;20426;-79
2020/12/25 12:11:09;;;;;;;5.83;1.80;;;8.80;79.60;;;;;;5048196;28;20446;-80
2020/12/25 12:13:35;;;;;;;4.97;1.50;;;8.80;79.40;;;;;;5048088;28;20458;-80
2020/12/25 12:16:02;;;;;;;6.10;1.87;;;8.70;80.10;;;;;;5048459;28;20489;-80
2020/12/25 12:18:29;;;;;;;6.87;1.80;;;8.70;79.60;;;;;;5047621;28;20464;-80
2020/12/25 12:20:55;;;;;;;4.77;1.57;;;8.60;80.30;;;;;;5047783;28;20437;-80
2020/12/25 12:23:21;;;;;;;4.90;2.00;;;8.60;80.20;;;;;;5048174;28;20442;-80
2020/12/25 12:25:47;;;;;;;7.73;2.10;;;8.60;80.20;;;;;;5047347;28;20520;-80
2020/12/25 12:28:14;;;;;;;8.83;2.03;;;8.60;80.60;;;;;;5047515;28;20449;-80
2020/12/25 12:30:40;;;;;;;7.90;2.07;;;8.70;81.00;;;;;;5047493;28;20951;-80
2020/12/25 12:33:07;;;;;;;6.40;1.90;;;8.90;79.80;;;;;;5047663;28;20453;-79
2020/12/25 12:35:33;;;;;;;5.77;2.00;;;9.00;78.00;;;;;;5047433;28;20489;-80
2020/12/25 12:37:59;;;;;;;7.93;1.90;;;9.10;77.60;;;;;;5046913;28;20475;-79
2020/12/25 12:40:26;;;;;;;5.73;1.23;;;9.20;77.30;;;;;;5046111;28;20431;-79
2020/12/25 12:42:52;;;;;;;3.40;1.93;;;9.20;77.50;;;;;;5045276;28;20444;-79
2020/12/25 12:45:18;;;;;;;8.23;1.87;;;9.10;77.30;;;;;;5046160;28;20459;-80
2020/12/25 12:47:44;;;;;;;3.47;1.57;;;9.10;77.70;;;;;;5046423;28;20449;-80
2020/12/25 12:50:11;;;;;;;6.57;3.03;;;9.10;78.00;;;;;;5045442;28;20491;-80
2020/12/25 12:52:38;;;;;;;10.83;2.63;;;9.20;77.60;;;;;;5045292;28;20445;-80
2020/12/25 12:55:04;;;;;;;7.17;2.20;;;9.50;77.00;;;;;;5045940;28;20516;-80